createdAt,value
2023-03-24T00:01:20.245Z,10.57
2023-03-24T00:03:52.636Z,10.53
2023-03-24T00:06:22.926Z,10.48
2023-03-24T00:08:51.530Z,10.43
2023-03-24T00:11:21.456Z,10.39
2023-03-24T00:13:50.869Z,10.34
2023-03-24T00:16:22.179Z,10.27
2023-03-24T00:18:54.409Z,10.20
2023-03-24T00:21:24.887Z,10.13
2023-03-24T00:23:54.750Z,10.05
2023-03-24T00:26:25.647Z,9.97
2023-03-24T00:28:55.083Z,9.90
2023-03-24T00:31:24.913Z,9.83
2023-03-24T00:33:54.056Z,9.77
2023-03-24T00:36:23.366Z,9.68
2023-03-24T00:38:52.245Z,9.60
2023-03-24T00:41:21.198Z,9.52
2023-03-24T00:43:50.214Z,9.46
2023-03-24T00:46:28.397Z,9.41
2023-03-24T00:49:02.972Z,9.37
2023-03-24T00:51:39.499Z,9.34
2023-03-24T00:54:09.468Z,9.32
2023-03-24T00:56:40.957Z,9.28
2023-03-24T00:59:10.690Z,9.23
2023-03-24T01:01:41.396Z,9.17
2023-03-24T01:04:10.678Z,9.12
2023-03-24T01:06:40.155Z,9.05
2023-03-24T01:09:08.427Z,8.97
2023-03-24T01:11:38.944Z,8.91
2023-03-24T01:14:08.811Z,8.83
2023-03-24T01:16:37.900Z,8.79
2023-03-24T01:19:06.928Z,8.74
2023-03-24T01:21:36.997Z,8.68
2023-03-24T01:24:06.015Z,8.60
2023-03-24T01:26:34.745Z,8.52
2023-03-24T01:29:03.279Z,8.43
2023-03-24T01:31:31.934Z,8.36
2023-03-24T01:34:00.550Z,8.30
2023-03-24T01:36:28.822Z,8.26
2023-03-24T01:38:58.644Z,8.21
2023-03-24T01:41:28.505Z,8.15
2023-03-24T01:43:57.375Z,8.10
2023-03-24T01:46:29.773Z,8.05
2023-03-24T01:49:06.604Z,8.01
2023-03-24T01:51:41.493Z,7.98
2023-03-24T01:54:25.952Z,7.95
2023-03-24T01:57:00.246Z,7.93
2023-03-24T01:59:30.890Z,7.90
2023-03-24T02:02:22.290Z,7.88
2023-03-24T02:05:01.320Z,7.83
2023-03-24T02:07:37.037Z,7.79
2023-03-24T02:10:10.233Z,7.77
2023-03-24T02:12:38.616Z,7.74
2023-03-24T02:15:09.033Z,7.71
2023-03-24T02:17:57.450Z,7.66
2023-03-24T02:20:41.637Z,7.63
2023-03-24T02:23:17.596Z,7.60
2023-03-24T02:25:48.843Z,7.56
2023-03-24T02:28:29.309Z,7.52
2023-03-24T02:31:08.797Z,7.49
2023-03-24T02:33:40.708Z,7.48
2023-03-24T02:36:22.003Z,7.45
2023-03-24T02:39:09.519Z,7.42
2023-03-24T02:41:41.168Z,7.38
2023-03-24T02:44:28.584Z,7.35
2023-03-24T02:47:06.387Z,7.32
2023-03-24T02:49:44.418Z,7.30
2023-03-24T02:52:12.762Z,7.26
2023-03-24T02:54:42.474Z,7.23
2023-03-24T02:57:17.615Z,7.19
2023-03-24T03:00:20.186Z,7.12
2023-03-24T03:03:09.949Z,7.08
2023-03-24T03:05:49.497Z,7.03
2023-03-24T03:08:21.325Z,6.98
2023-03-24T03:10:50.661Z,6.93
2023-03-24T03:13:28.217Z,6.88
2023-03-24T03:15:59.261Z,6.86
2023-03-24T03:18:39.586Z,6.82
2023-03-24T03:21:11.213Z,6.80
2023-03-24T03:23:46.349Z,6.77
2023-03-24T03:26:17.705Z,6.76
2023-03-24T03:28:50.605Z,6.75
2023-03-24T03:31:30.035Z,6.72
2023-03-24T03:34:18.779Z,6.64
2023-03-24T03:36:47.063Z,6.58
2023-03-24T03:39:20.972Z,6.53
2023-03-24T03:41:49.147Z,6.51
2023-03-24T03:44:17.443Z,6.50
2023-03-24T03:46:46.436Z,6.46
2023-03-24T03:49:19.214Z,6.43
2023-03-24T03:51:47.601Z,6.41
2023-03-24T03:54:16.921Z,6.37
2023-03-24T03:56:48.697Z,6.37
2023-03-24T03:59:34.861Z,6.39
2023-03-24T04:02:26.249Z,6.40
2023-03-24T04:05:21.057Z,6.42
2023-03-24T04:08:08.575Z,6.42
2023-03-24T04:10:57.029Z,6.39
2023-03-24T04:13:32.766Z,6.37
2023-03-24T04:16:40.303Z,6.38
2023-03-24T04:19:26.156Z,6.40
2023-03-24T04:22:17.439Z,6.39
2023-03-24T04:24:45.818Z,6.40
2023-03-24T04:27:17.475Z,6.41
2023-03-24T04:29:55.481Z,6.41
2023-03-24T04:32:28.095Z,6.42
2023-03-24T04:35:02.066Z,6.44
2023-03-24T04:37:56.550Z,6.46
2023-03-24T04:40:33.219Z,6.47
2023-03-24T04:43:04.415Z,6.47
2023-03-24T04:45:33.763Z,6.47
2023-03-24T04:48:28.027Z,6.49
2023-03-24T04:51:12.872Z,6.51
2023-03-24T04:53:56.881Z,6.55
2023-03-24T04:56:28.638Z,6.59
2023-03-24T04:59:07.525Z,6.60
2023-03-24T05:01:37.889Z,6.63
2023-03-24T05:04:27.342Z,6.65
2023-03-24T05:06:56.143Z,6.68
2023-03-24T05:09:26.559Z,6.72
2023-03-24T05:12:17.503Z,6.76
2023-03-24T05:15:19.711Z,6.82
2023-03-24T05:17:49.767Z,6.88
2023-03-24T05:20:18.319Z,6.94
2023-03-24T05:22:50.593Z,6.98
2023-03-24T05:25:19.086Z,7.01
2023-03-24T05:27:47.874Z,7.06
2023-03-24T05:30:27.326Z,7.12
2023-03-24T05:33:01.949Z,7.16
2023-03-24T05:35:30.841Z,7.21
2023-03-24T05:37:59.518Z,7.29
2023-03-24T05:40:28.014Z,7.35
2023-03-24T05:43:12.460Z,7.45
2023-03-24T05:45:45.454Z,7.55
2023-03-24T05:48:20.497Z,7.64
2023-03-24T05:51:14.863Z,7.76
2023-03-24T05:53:43.605Z,7.87
2023-03-24T05:56:17.462Z,7.98
2023-03-24T05:59:17.988Z,8.13
2023-03-24T06:02:08.290Z,8.24
2023-03-24T06:04:52.036Z,8.34
2023-03-24T06:07:26.774Z,8.43
2023-03-24T06:09:58.330Z,8.50
2023-03-24T06:12:27.077Z,8.60
2023-03-24T06:15:01.431Z,8.69
2023-03-24T06:17:30.953Z,8.81
2023-03-24T06:20:05.335Z,8.93
2023-03-24T06:22:36.573Z,9.05
2023-03-24T06:25:09.267Z,9.16
2023-03-24T06:27:38.462Z,9.26
2023-03-24T06:30:08.677Z,9.34
2023-03-24T06:32:38.537Z,9.45
2023-03-24T06:35:07.512Z,9.51
2023-03-24T06:37:47.766Z,9.57
2023-03-24T06:40:17.806Z,9.60
2023-03-24T06:42:55.994Z,9.63
2023-03-24T06:45:24.798Z,9.62
2023-03-24T06:47:57.363Z,9.61
2023-03-24T06:50:27.386Z,9.62
2023-03-24T06:52:56.290Z,9.63
2023-03-24T06:55:25.176Z,9.66
2023-03-24T06:57:54.395Z,9.70
2023-03-24T07:00:38.871Z,9.75
2023-03-24T07:03:36.928Z,9.82
2023-03-24T07:06:33.131Z,9.90
2023-03-24T07:09:09.887Z,9.96
2023-03-24T07:11:38.788Z,10.02
2023-03-24T07:14:07.783Z,10.10
2023-03-24T07:16:37.289Z,10.18
2023-03-24T07:19:28.811Z,10.28
2023-03-24T07:22:13.461Z,10.40
2023-03-24T07:25:04.914Z,10.52
2023-03-24T07:27:42.875Z,10.63
2023-03-24T07:30:11.913Z,10.77
2023-03-24T07:32:46.033Z,10.92
2023-03-24T07:35:14.373Z,11.06
2023-03-24T07:37:42.972Z,11.22
2023-03-24T07:40:12.948Z,11.35
2023-03-24T07:42:44.947Z,11.49
2023-03-24T07:45:36.009Z,11.67
2023-03-24T07:48:04.980Z,11.82
2023-03-24T07:50:36.417Z,11.98
2023-03-24T07:53:12.667Z,12.14
2023-03-24T07:55:41.661Z,12.30
2023-03-24T07:58:15.070Z,12.47
2023-03-24T08:00:53.685Z,12.64
2023-03-24T08:03:28.679Z,12.83
2023-03-24T08:06:15.932Z,13.00
2023-03-24T08:08:52.010Z,13.16
2023-03-24T08:11:21.675Z,13.33
2023-03-24T08:13:49.780Z,13.50
2023-03-24T08:16:18.701Z,13.69
2023-03-24T08:18:48.902Z,13.88
2023-03-24T08:21:25.914Z,14.09
2023-03-24T08:23:54.369Z,14.34
2023-03-24T08:26:26.670Z,14.54
2023-03-24T08:28:54.929Z,14.73
2023-03-24T08:31:23.423Z,14.89
2023-03-24T08:33:53.942Z,15.03
2023-03-24T08:36:26.633Z,15.17
2023-03-24T08:38:55.781Z,15.35
2023-03-24T08:41:44.662Z,15.53
2023-03-24T08:44:13.166Z,15.77
2023-03-24T08:46:42.010Z,16.01
2023-03-24T08:49:10.864Z,16.24
2023-03-24T08:51:39.142Z,16.50
2023-03-24T08:54:07.955Z,16.76
2023-03-24T08:56:36.127Z,17.02
2023-03-24T08:59:06.027Z,17.28
2023-03-24T09:01:35.661Z,17.55
2023-03-24T09:04:04.223Z,17.82
2023-03-24T09:06:32.921Z,18.12
2023-03-24T09:09:00.998Z,18.33
2023-03-24T09:11:29.185Z,18.58
2023-03-24T09:13:57.987Z,18.92
2023-03-24T09:16:26.896Z,19.26
2023-03-24T09:18:55.361Z,19.63
2023-03-24T09:21:23.946Z,19.96
2023-03-24T09:23:52.430Z,20.34
2023-03-24T09:26:21.644Z,20.75
2023-03-24T09:28:49.911Z,21.22
2023-03-24T09:31:18.443Z,21.81
2023-03-24T09:33:47.394Z,22.58
2023-03-24T09:36:15.690Z,23.41
2023-03-24T09:38:44.190Z,24.08
2023-03-24T09:41:20.536Z,24.60
2023-03-24T09:43:55.323Z,24.98
2023-03-24T09:46:29.512Z,25.33
2023-03-24T09:48:58.102Z,25.54
2023-03-24T09:51:30.362Z,25.66
2023-03-24T09:54:04.764Z,25.87
2023-03-24T09:56:33.886Z,26.26
2023-03-24T09:59:08.007Z,26.73
2023-03-24T10:01:36.576Z,26.93
2023-03-24T10:04:05.593Z,26.82
2023-03-24T10:06:42.198Z,26.79
2023-03-24T10:09:10.602Z,27.32
2023-03-24T10:11:47.320Z,27.80
2023-03-24T10:14:25.092Z,27.82
2023-03-24T10:17:03.360Z,28.02
2023-03-24T10:19:43.973Z,28.14
2023-03-24T10:22:21.461Z,27.90
2023-03-24T10:24:56.197Z,27.51
2023-03-24T10:27:24.476Z,27.61
2023-03-24T10:29:55.008Z,28.06
2023-03-24T10:32:25.967Z,28.63
2023-03-24T10:35:07.740Z,29.32
2023-03-24T10:37:36.949Z,30.00
2023-03-24T10:40:12.800Z,30.22
2023-03-24T10:42:40.977Z,30.28
2023-03-24T10:45:14.325Z,30.20
2023-03-24T10:47:42.999Z,29.91
2023-03-24T10:50:14.975Z,29.62
2023-03-24T10:52:46.665Z,29.09
2023-03-24T10:55:26.472Z,28.89
2023-03-24T10:58:00.099Z,28.70
2023-03-24T11:00:35.948Z,28.84
2023-03-24T11:03:08.554Z,29.22
2023-03-24T11:05:38.085Z,29.86
2023-03-24T11:08:26.120Z,30.39
2023-03-24T11:10:59.508Z,31.05
2023-03-24T11:13:32.507Z,31.71
2023-03-24T11:16:14.949Z,31.78
2023-03-24T11:18:57.612Z,32.04
2023-03-24T11:21:28.155Z,32.28
2023-03-24T11:24:01.681Z,32.41
2023-03-24T11:26:41.037Z,32.24
2023-03-24T11:29:18.896Z,32.04
2023-03-24T11:31:52.078Z,32.29
2023-03-24T11:34:25.496Z,32.52
2023-03-24T11:36:56.274Z,32.50
2023-03-24T11:39:25.843Z,32.59
2023-03-24T11:42:03.135Z,32.75
2023-03-24T11:44:40.300Z,32.78
2023-03-24T11:47:11.654Z,32.83
2023-03-24T11:49:50.651Z,32.75
2023-03-24T11:52:29.084Z,32.50
2023-03-24T11:54:57.377Z,32.27
2023-03-24T11:57:40.493Z,32.08
2023-03-24T12:00:22.304Z,31.82
2023-03-24T12:02:56.480Z,31.85
2023-03-24T12:05:42.661Z,31.91
2023-03-24T12:08:13.941Z,31.86
2023-03-24T12:10:42.018Z,31.61
2023-03-24T12:13:18.979Z,31.48
2023-03-24T12:16:08.690Z,31.29
2023-03-24T12:18:39.619Z,31.46
2023-03-24T12:21:27.240Z,31.72
2023-03-24T12:23:59.901Z,32.06
2023-03-24T12:26:28.320Z,32.42
2023-03-24T12:29:08.659Z,32.89
2023-03-24T12:31:36.782Z,33.14
2023-03-24T12:34:17.091Z,33.30
2023-03-24T12:37:04.714Z,33.63
2023-03-24T12:39:35.829Z,33.99
2023-03-24T12:42:04.040Z,34.47
2023-03-24T12:44:32.328Z,34.74
2023-03-24T12:47:16.362Z,34.93
2023-03-24T12:49:44.650Z,35.00
2023-03-24T12:52:29.204Z,34.82
2023-03-24T12:55:03.124Z,34.96
2023-03-24T12:57:35.947Z,35.23
2023-03-24T13:00:12.226Z,35.47
2023-03-24T13:02:45.621Z,35.65
2023-03-24T13:05:46.803Z,36.10
2023-03-24T13:08:19.782Z,36.49
2023-03-24T13:10:48.783Z,36.24
2023-03-24T13:13:29.059Z,36.70
2023-03-24T13:16:09.325Z,37.07
2023-03-24T13:18:40.034Z,37.15
2023-03-24T13:21:12.096Z,37.41
2023-03-24T13:23:44.078Z,37.74
2023-03-24T13:26:31.482Z,37.76
2023-03-24T13:29:18.386Z,37.64
2023-03-24T13:31:51.007Z,37.45
2023-03-24T13:34:33.077Z,37.62
2023-03-24T13:37:06.820Z,37.46
2023-03-24T13:39:36.488Z,37.29
2023-03-24T13:42:05.361Z,37.70
2023-03-24T13:44:38.982Z,38.02
2023-03-24T13:47:15.575Z,38.03
2023-03-24T13:49:53.997Z,37.99
2023-03-24T13:52:45.224Z,37.91
2023-03-24T13:55:16.409Z,38.30
2023-03-24T13:57:52.582Z,38.42
2023-03-24T14:00:23.337Z,38.51
2023-03-24T14:02:55.641Z,38.34
2023-03-24T14:05:26.830Z,38.13
2023-03-24T14:08:01.981Z,37.84
2023-03-24T14:10:41.695Z,37.38
2023-03-24T14:13:12.883Z,36.65
2023-03-24T14:15:57.264Z,36.27
2023-03-24T14:18:26.074Z,35.74
2023-03-24T14:20:57.703Z,35.33
2023-03-24T14:23:41.814Z,35.13
2023-03-24T14:26:31.787Z,34.91
2023-03-24T14:29:00.535Z,34.27
2023-03-24T14:31:30.843Z,33.95
2023-03-24T14:34:21.499Z,33.75
2023-03-24T14:37:00.119Z,33.27
2023-03-24T14:39:36.794Z,32.83
2023-03-24T14:42:24.321Z,32.40
2023-03-24T14:44:56.274Z,31.92
2023-03-24T14:47:32.913Z,31.54
2023-03-24T14:50:04.070Z,30.95
2023-03-24T14:52:40.182Z,30.33
2023-03-24T14:55:13.247Z,29.74
2023-03-24T14:57:46.184Z,29.29
2023-03-24T15:00:17.603Z,28.83
2023-03-24T15:02:48.179Z,28.38
2023-03-24T15:05:25.714Z,27.97
2023-03-24T15:08:03.537Z,27.68
2023-03-24T15:10:33.741Z,27.35
2023-03-24T15:13:01.996Z,27.07
2023-03-24T15:15:30.785Z,26.90
2023-03-24T15:17:59.131Z,26.72
2023-03-24T15:20:27.586Z,26.43
2023-03-24T15:22:56.194Z,26.20
2023-03-24T15:25:28.283Z,25.96
2023-03-24T15:27:57.956Z,25.78
2023-03-24T15:30:26.457Z,25.73
2023-03-24T15:32:55.129Z,26.05
2023-03-24T15:35:23.974Z,26.61
2023-03-24T15:37:53.662Z,26.85
2023-03-24T15:40:31.234Z,26.61
2023-03-24T15:43:00.890Z,26.24
2023-03-24T15:45:34.176Z,25.89
2023-03-24T15:48:05.929Z,25.51
2023-03-24T15:50:41.264Z,25.18
2023-03-24T15:53:16.081Z,24.91
2023-03-24T15:55:44.871Z,24.65
2023-03-24T15:58:24.624Z,24.35
2023-03-24T16:00:54.922Z,24.04
2023-03-24T16:03:26.902Z,23.76
2023-03-24T16:05:56.197Z,23.52
2023-03-24T16:08:41.367Z,23.27
2023-03-24T16:11:12.233Z,23.02
2023-03-24T16:13:42.451Z,22.83
2023-03-24T16:16:11.074Z,22.68
2023-03-24T16:18:40.565Z,22.51
2023-03-24T16:21:13.951Z,22.37
2023-03-24T16:23:45.402Z,22.25
2023-03-24T16:26:14.715Z,22.14
2023-03-24T16:28:43.300Z,22.03
2023-03-24T16:31:18.152Z,21.91
2023-03-24T16:33:47.147Z,21.81
2023-03-24T16:36:15.618Z,21.69
2023-03-24T16:38:45.231Z,21.57
2023-03-24T16:41:15.664Z,21.43
2023-03-24T16:43:44.650Z,21.31
2023-03-24T16:46:17.575Z,21.19
2023-03-24T16:48:46.541Z,21.09
2023-03-24T16:51:15.759Z,20.96
2023-03-24T16:53:45.463Z,20.83
2023-03-24T16:56:15.071Z,20.72
2023-03-24T16:58:43.658Z,20.60
2023-03-24T17:01:29.879Z,20.45
2023-03-24T17:03:59.250Z,20.24
2023-03-24T17:06:28.875Z,20.08
2023-03-24T17:08:57.368Z,19.91
2023-03-24T17:11:30.505Z,19.70
2023-03-24T17:14:04.841Z,19.54
2023-03-24T17:16:36.793Z,19.44
2023-03-24T17:19:08.497Z,19.30
2023-03-24T17:21:38.930Z,19.19
2023-03-24T17:24:11.032Z,19.06
2023-03-24T17:26:40.405Z,18.91
2023-03-24T17:29:12.796Z,18.79
2023-03-24T17:31:43.528Z,18.70
2023-03-24T17:34:21.530Z,18.54
2023-03-24T17:36:51.116Z,18.36
2023-03-24T17:39:20.464Z,18.25
2023-03-24T17:41:49.156Z,18.15
2023-03-24T17:44:17.606Z,18.03
2023-03-24T17:46:46.147Z,17.87
2023-03-24T17:49:17.753Z,17.64
2023-03-24T17:51:46.039Z,17.48
2023-03-24T17:54:19.337Z,17.42
2023-03-24T17:56:47.889Z,17.33
2023-03-24T17:59:16.406Z,17.22
2023-03-24T18:01:44.598Z,17.12
2023-03-24T18:04:13.107Z,17.04
2023-03-24T18:06:42.575Z,16.98
2023-03-24T18:09:10.763Z,16.88
2023-03-24T18:11:39.244Z,16.79
2023-03-24T18:14:09.415Z,16.72
2023-03-24T18:16:39.533Z,16.73
2023-03-24T18:19:08.386Z,16.83
2023-03-24T18:21:36.838Z,16.92
2023-03-24T18:24:06.680Z,17.00
2023-03-24T18:26:35.198Z,17.07
2023-03-24T18:29:03.872Z,17.12
2023-03-24T18:31:33.021Z,17.17
2023-03-24T18:34:01.288Z,17.21
2023-03-24T18:36:31.387Z,17.25
2023-03-24T18:38:59.778Z,17.26
2023-03-24T18:41:28.752Z,17.27
2023-03-24T18:43:58.483Z,17.27
2023-03-24T18:46:27.465Z,17.27
2023-03-24T18:48:55.953Z,17.27
2023-03-24T18:51:28.361Z,17.26
2023-03-24T18:53:56.509Z,17.27
2023-03-24T18:56:24.993Z,17.25
2023-03-24T18:58:53.352Z,17.24
2023-03-24T19:01:26.369Z,17.22
2023-03-24T19:03:54.960Z,17.18
2023-03-24T19:06:26.439Z,17.16
2023-03-24T19:08:54.603Z,17.14
2023-03-24T19:11:23.499Z,17.11
2023-03-24T19:13:52.209Z,17.08
2023-03-24T19:16:20.836Z,17.04
2023-03-24T19:18:50.919Z,16.99
2023-03-24T19:21:19.899Z,16.95
2023-03-24T19:23:49.951Z,16.92
2023-03-24T19:26:20.846Z,16.89
2023-03-24T19:28:48.939Z,16.86
2023-03-24T19:31:18.706Z,16.84
2023-03-24T19:33:47.448Z,16.81
2023-03-24T19:36:18.391Z,16.78
2023-03-24T19:38:46.883Z,16.74
2023-03-24T19:41:16.151Z,16.71
2023-03-24T19:43:44.563Z,16.69
2023-03-24T19:46:12.875Z,16.65
2023-03-24T19:48:43.889Z,16.63
2023-03-24T19:51:12.294Z,16.60
2023-03-24T19:53:40.617Z,16.57
2023-03-24T19:56:08.938Z,16.55
2023-03-24T19:58:37.130Z,16.51
2023-03-24T20:01:05.464Z,16.45
2023-03-24T20:03:35.773Z,16.42
2023-03-24T20:06:10.559Z,16.39
2023-03-24T20:08:39.104Z,16.35
2023-03-24T20:11:08.549Z,16.32
2023-03-24T20:13:37.142Z,16.29
2023-03-24T20:16:05.844Z,16.26
2023-03-24T20:18:34.855Z,16.22
2023-03-24T20:21:06.556Z,16.17
2023-03-24T20:23:34.977Z,16.10
2023-03-24T20:26:03.377Z,16.04
2023-03-24T20:28:31.643Z,15.97
2023-03-24T20:31:01.213Z,15.91
2023-03-24T20:33:29.949Z,15.85
2023-03-24T20:35:58.671Z,15.78
2023-03-24T20:38:26.932Z,15.67
2023-03-24T20:40:59.254Z,15.55
2023-03-24T20:43:27.993Z,15.41
2023-03-24T20:45:57.607Z,15.25
2023-03-24T20:48:26.846Z,15.11
2023-03-24T20:50:55.296Z,14.96
2023-03-24T20:53:25.107Z,14.85
2023-03-24T20:56:01.060Z,14.72
2023-03-24T20:58:31.083Z,14.59
2023-03-24T21:00:59.909Z,14.50
2023-03-24T21:03:28.212Z,14.42
2023-03-24T21:05:56.437Z,14.34
2023-03-24T21:08:24.623Z,14.26
2023-03-24T21:10:56.595Z,14.15
2023-03-24T21:13:34.790Z,14.04
2023-03-24T21:16:09.259Z,13.91
2023-03-24T21:18:38.618Z,13.80
2023-03-24T21:21:07.019Z,13.64
2023-03-24T21:23:39.375Z,13.55
2023-03-24T21:26:09.814Z,13.50
2023-03-24T21:28:38.814Z,13.44
2023-03-24T21:31:08.283Z,13.38
2023-03-24T21:33:40.172Z,13.35
2023-03-24T21:36:09.147Z,13.29
2023-03-24T21:38:37.874Z,13.18
2023-03-24T21:41:06.666Z,13.09
2023-03-24T21:43:35.465Z,13.06
2023-03-24T21:46:04.262Z,13.03
2023-03-24T21:48:40.280Z,12.97
2023-03-24T21:51:08.802Z,12.94
2023-03-24T21:53:37.497Z,12.91
2023-03-24T21:56:06.356Z,12.89
2023-03-24T21:58:35.078Z,12.87
2023-03-24T22:01:03.539Z,12.83
2023-03-24T22:03:34.708Z,12.81
2023-03-24T22:06:04.034Z,12.76
2023-03-24T22:08:32.711Z,12.71
2023-03-24T22:11:04.273Z,12.65
2023-03-24T22:13:33.168Z,12.58
2023-03-24T22:16:03.255Z,12.53
2023-03-24T22:18:32.485Z,12.50
2023-03-24T22:21:04.791Z,12.46
2023-03-24T22:23:34.583Z,12.38
2023-03-24T22:26:13.507Z,12.33
2023-03-24T22:28:42.557Z,12.29
2023-03-24T22:31:12.440Z,12.24
2023-03-24T22:33:41.219Z,12.22
2023-03-24T22:36:09.813Z,12.20
2023-03-24T22:38:37.984Z,12.17
2023-03-24T22:41:07.486Z,12.15
2023-03-24T22:43:36.529Z,12.13
2023-03-24T22:46:06.059Z,12.09
2023-03-24T22:48:34.384Z,12.02
2023-03-24T22:51:02.559Z,11.90
2023-03-24T22:53:30.736Z,11.82
2023-03-24T22:55:58.821Z,11.81
2023-03-24T22:58:27.300Z,11.82
2023-03-24T23:00:56.741Z,11.80
2023-03-24T23:03:25.185Z,11.81
2023-03-24T23:05:53.495Z,11.80
2023-03-24T23:08:21.764Z,11.78
2023-03-24T23:10:50.045Z,11.78
2023-03-24T23:13:18.526Z,11.73
2023-03-24T23:15:48.002Z,11.66
2023-03-24T23:18:16.937Z,11.61
2023-03-24T23:20:46.206Z,11.53
2023-03-24T23:23:14.416Z,11.48
2023-03-24T23:25:44.081Z,11.41
2023-03-24T23:28:13.047Z,11.36
2023-03-24T23:30:41.523Z,11.28
2023-03-24T23:33:14.909Z,11.19
2023-03-24T23:35:43.227Z,11.16
2023-03-24T23:38:11.621Z,11.13
2023-03-24T23:40:40.023Z,11.12
2023-03-24T23:43:08.554Z,11.04
2023-03-24T23:45:37.187Z,10.92
2023-03-24T23:48:06.690Z,10.88
2023-03-24T23:50:34.838Z,10.86
2023-03-24T23:53:03.014Z,10.88
2023-03-24T23:55:32.120Z,10.87
2023-03-24T23:58:01.220Z,10.87
